createdAt,value
2023-02-16T00:02:10.271Z,64.41
2023-02-16T00:04:37.614Z,64.45
2023-02-16T00:07:04.964Z,64.00
2023-02-16T00:09:33.236Z,64.41
2023-02-16T00:12:19.137Z,64.59
2023-02-16T00:14:46.465Z,64.58
2023-02-16T00:17:13.722Z,64.59
2023-02-16T00:19:42.673Z,65.42
2023-02-16T00:22:11.344Z,65.28
2023-02-16T00:24:38.631Z,65.22
2023-02-16T00:27:14.046Z,65.71
2023-02-16T00:29:41.758Z,65.98
2023-02-16T00:32:12.461Z,65.96
2023-02-16T00:34:43.163Z,66.41
2023-02-16T00:37:12.472Z,66.41
2023-02-16T00:39:41.646Z,67.03
2023-02-16T00:42:11.755Z,66.75
2023-02-16T00:44:45.744Z,66.89
2023-02-16T00:47:38.058Z,66.88
2023-02-16T00:50:24.096Z,66.78
2023-02-16T00:52:51.829Z,66.47
2023-02-16T00:55:21.871Z,66.50
2023-02-16T00:58:01.323Z,66.52
2023-02-16T01:00:35.840Z,66.85
2023-02-16T01:03:07.475Z,67.06
2023-02-16T01:05:36.414Z,67.87
2023-02-16T01:08:28.489Z,67.61
2023-02-16T01:10:59.136Z,68.06
2023-02-16T01:13:28.448Z,68.05
2023-02-16T01:15:56.393Z,67.81
2023-02-16T01:18:23.759Z,67.16
2023-02-16T01:20:52.152Z,67.49
2023-02-16T01:23:19.466Z,67.09
2023-02-16T01:25:46.737Z,67.25
2023-02-16T01:28:21.173Z,67.77
2023-02-16T01:30:49.520Z,67.63
2023-02-16T01:33:16.994Z,67.30
2023-02-16T01:35:45.004Z,67.62
2023-02-16T01:38:23.599Z,67.83
2023-02-16T01:41:32.914Z,67.39
2023-02-16T01:44:05.079Z,67.57
2023-02-16T01:46:50.773Z,68.33
2023-02-16T01:49:19.969Z,68.14
2023-02-16T01:51:57.763Z,68.30
2023-02-16T01:54:44.001Z,68.37
2023-02-16T01:57:41.170Z,69.28
2023-02-16T02:00:16.889Z,69.39
2023-02-16T02:02:54.978Z,68.97
2023-02-16T02:05:35.152Z,68.94
2023-02-16T02:08:11.591Z,69.13
2023-02-16T02:11:09.827Z,68.68
2023-02-16T02:13:40.142Z,69.28
2023-02-16T02:16:08.347Z,69.25
2023-02-16T02:18:35.810Z,69.41
2023-02-16T02:21:23.076Z,69.99
2023-02-16T02:24:11.637Z,70.31
2023-02-16T02:27:06.154Z,71.05
2023-02-16T02:30:10.725Z,70.77
2023-02-16T02:32:57.043Z,70.33
2023-02-16T02:35:47.484Z,70.20
2023-02-16T02:38:40.005Z,70.33
2023-02-16T02:41:54.908Z,69.90
2023-02-16T02:44:24.340Z,70.50
2023-02-16T02:46:51.734Z,70.21
2023-02-16T02:49:20.371Z,70.25
2023-02-16T02:51:48.750Z,70.33
2023-02-16T02:54:42.676Z,70.73
2023-02-16T02:58:09.271Z,70.38
2023-02-16T03:00:43.724Z,70.55
2023-02-16T03:03:27.703Z,70.59
2023-02-16T03:06:03.020Z,70.41
2023-02-16T03:08:33.102Z,69.66
2023-02-16T03:11:30.429Z,70.24
2023-02-16T03:14:00.913Z,70.50
2023-02-16T03:16:38.650Z,70.36
2023-02-16T03:19:25.984Z,70.60
2023-02-16T03:22:12.344Z,70.42
2023-02-16T03:24:58.336Z,70.03
2023-02-16T03:27:46.800Z,69.78
2023-02-16T03:30:15.712Z,70.78
2023-02-16T03:32:44.534Z,70.14
2023-02-16T03:35:12.821Z,70.91
2023-02-16T03:37:41.220Z,70.44
2023-02-16T03:40:29.415Z,71.23
2023-02-16T03:42:58.769Z,71.00
2023-02-16T03:45:26.510Z,70.91
2023-02-16T03:47:54.199Z,71.30
2023-02-16T03:50:22.105Z,72.22
2023-02-16T03:52:49.690Z,71.57
2023-02-16T03:55:17.134Z,72.01
2023-02-16T03:57:44.413Z,71.72
2023-02-16T04:00:12.179Z,71.84
2023-02-16T04:02:43.713Z,72.54
2023-02-16T04:05:11.089Z,72.66
2023-02-16T04:07:38.513Z,72.62
2023-02-16T04:10:06.365Z,72.05
2023-02-16T04:12:36.503Z,72.53
2023-02-16T04:15:08.282Z,72.45
2023-02-16T04:17:35.637Z,73.03
2023-02-16T04:20:03.344Z,72.92
2023-02-16T04:22:30.610Z,73.32
2023-02-16T04:24:57.965Z,72.72
2023-02-16T04:27:25.335Z,72.88
2023-02-16T04:29:52.735Z,72.95
2023-02-16T04:32:20.242Z,72.98
2023-02-16T04:34:47.536Z,72.79
2023-02-16T04:37:14.925Z,73.47
2023-02-16T04:39:42.511Z,72.17
2023-02-16T04:42:09.779Z,72.34
2023-02-16T04:44:37.050Z,73.69
2023-02-16T04:47:04.394Z,73.16
2023-02-16T04:49:31.704Z,73.72
2023-02-16T04:52:00.914Z,73.58
2023-02-16T04:54:28.220Z,74.17
2023-02-16T04:56:55.612Z,74.28
2023-02-16T04:59:22.948Z,74.62
2023-02-16T05:01:50.248Z,75.32
2023-02-16T05:04:17.634Z,74.07
2023-02-16T05:06:45.150Z,74.12
2023-02-16T05:09:12.569Z,74.75
2023-02-16T05:11:58.614Z,74.14
2023-02-16T05:14:46.607Z,73.80
2023-02-16T05:17:22.804Z,74.54
2023-02-16T05:19:53.157Z,74.86
2023-02-16T05:22:20.864Z,74.82
2023-02-16T05:24:48.524Z,75.32
2023-02-16T05:27:23.418Z,74.46
2023-02-16T05:29:51.274Z,74.91
2023-02-16T05:32:18.972Z,74.21
2023-02-16T05:34:46.439Z,74.80
2023-02-16T05:37:15.101Z,74.61
2023-02-16T05:39:42.690Z,75.25
2023-02-16T05:42:10.457Z,75.28
2023-02-16T05:44:38.343Z,74.66
2023-02-16T05:47:05.691Z,75.02
2023-02-16T05:49:32.957Z,74.97
2023-02-16T05:52:00.397Z,75.44
2023-02-16T05:54:28.203Z,75.29
2023-02-16T05:56:55.674Z,75.74
2023-02-16T05:59:23.368Z,75.66
2023-02-16T06:01:52.140Z,75.84
2023-02-16T06:04:20.820Z,75.31
2023-02-16T06:06:48.471Z,75.19
2023-02-16T06:09:15.922Z,74.93
2023-02-16T06:11:43.475Z,75.22
2023-02-16T06:14:14.601Z,75.47
2023-02-16T06:16:44.916Z,75.97
2023-02-16T06:19:12.618Z,75.32
2023-02-16T06:21:40.697Z,74.67
2023-02-16T06:24:09.943Z,74.67
2023-02-16T06:26:37.560Z,74.48
2023-02-16T06:29:05.601Z,74.29
2023-02-16T06:31:36.080Z,74.34
2023-02-16T06:34:04.561Z,74.91
2023-02-16T06:36:32.926Z,75.71
2023-02-16T06:39:00.199Z,76.30
2023-02-16T06:41:40.227Z,76.45
2023-02-16T06:44:12.298Z,75.99
2023-02-16T06:46:44.610Z,76.42
2023-02-16T06:49:14.174Z,75.82
2023-02-16T06:51:41.684Z,76.37
2023-02-16T06:54:09.034Z,76.60
2023-02-16T06:56:37.962Z,77.33
2023-02-16T06:59:05.631Z,77.40
2023-02-16T07:01:32.880Z,78.16
2023-02-16T07:04:00.150Z,77.96
2023-02-16T07:06:29.430Z,79.06
2023-02-16T07:08:56.817Z,79.02
2023-02-16T07:11:24.206Z,78.69
2023-02-16T07:13:51.539Z,78.07
2023-02-16T07:16:19.182Z,77.44
2023-02-16T07:18:47.420Z,77.26
2023-02-16T07:21:15.308Z,77.15
2023-02-16T07:23:43.052Z,76.56
2023-02-16T07:26:10.463Z,76.40
2023-02-16T07:28:37.854Z,77.24
2023-02-16T07:31:09.657Z,77.08
2023-02-16T07:33:37.559Z,77.51
2023-02-16T07:36:05.756Z,77.90
2023-02-16T07:38:33.389Z,77.67
2023-02-16T07:41:00.653Z,77.26
2023-02-16T07:43:28.026Z,76.34
2023-02-16T07:45:55.326Z,76.63
2023-02-16T07:48:22.697Z,76.91
2023-02-16T07:50:50.279Z,76.45
2023-02-16T07:53:17.702Z,76.57
2023-02-16T07:55:45.969Z,76.98
2023-02-16T07:58:27.322Z,77.70
2023-02-16T08:01:09.862Z,78.51
2023-02-16T08:03:37.802Z,78.25
2023-02-16T08:06:17.825Z,77.77
2023-02-16T08:08:46.753Z,78.39
2023-02-16T08:11:27.145Z,79.38
2023-02-16T08:13:54.301Z,79.87
2023-02-16T08:16:24.032Z,79.83
2023-02-16T08:18:52.271Z,79.27
2023-02-16T08:21:21.975Z,78.43
2023-02-16T08:23:54.754Z,77.83
2023-02-16T08:26:24.061Z,78.07
2023-02-16T08:28:54.285Z,78.40
2023-02-16T08:31:25.190Z,78.83
2023-02-16T08:33:53.701Z,79.18
2023-02-16T08:36:24.105Z,79.07
2023-02-16T08:38:54.120Z,79.11
2023-02-16T08:41:23.870Z,79.23
2023-02-16T08:43:51.281Z,78.77
2023-02-16T08:46:18.886Z,77.93
2023-02-16T08:48:47.431Z,78.46
2023-02-16T08:51:18.434Z,77.49
2023-02-16T08:53:48.514Z,77.14
2023-02-16T08:56:16.759Z,83.03
2023-02-16T08:58:44.387Z,61.97
2023-02-16T09:01:12.988Z,65.89
2023-02-16T09:03:44.889Z,68.27
2023-02-16T09:06:14.268Z,69.40
2023-02-16T09:08:42.270Z,71.18
2023-02-16T09:11:13.035Z,72.87
2023-02-16T09:13:41.131Z,72.77
2023-02-16T09:16:16.067Z,73.42
2023-02-16T09:18:45.053Z,73.73
2023-02-16T09:21:15.662Z,73.81
2023-02-16T09:23:48.617Z,74.52
2023-02-16T09:26:20.625Z,75.09
2023-02-16T09:28:48.990Z,75.16
2023-02-16T09:31:25.481Z,75.61
2023-02-16T09:34:14.024Z,75.29
2023-02-16T09:36:47.705Z,75.09
2023-02-16T09:39:17.004Z,75.26
2023-02-16T09:42:15.368Z,75.39
2023-02-16T09:44:54.733Z,75.44
2023-02-16T09:47:31.212Z,75.99
2023-02-16T09:50:01.307Z,75.89
2023-02-16T09:52:45.047Z,75.25
2023-02-16T09:55:17.180Z,75.45
2023-02-16T09:57:57.874Z,74.73
2023-02-16T10:00:45.200Z,74.94
2023-02-16T10:03:38.956Z,75.44
2023-02-16T10:06:28.118Z,75.48
2023-02-16T10:09:16.494Z,74.99
2023-02-16T10:11:49.859Z,74.97
2023-02-16T10:14:45.191Z,74.44
2023-02-16T10:17:38.983Z,74.50
2023-02-16T10:20:09.405Z,74.07
2023-02-16T10:22:43.958Z,73.45
2023-02-16T10:25:17.109Z,73.70
2023-02-16T10:27:50.487Z,74.16
2023-02-16T10:30:20.225Z,73.43
2023-02-16T10:32:47.790Z,74.08
2023-02-16T10:35:18.185Z,73.93
2023-02-16T10:38:08.645Z,73.77
2023-02-16T10:40:52.649Z,73.88
2023-02-16T10:43:31.068Z,74.62
2023-02-16T10:45:59.614Z,74.78
2023-02-16T10:48:27.242Z,74.69
2023-02-16T10:50:58.771Z,74.58
2023-02-16T10:53:32.358Z,74.01
2023-02-16T10:55:59.887Z,73.89
2023-02-16T10:58:36.666Z,73.96
2023-02-16T11:01:11.878Z,74.21
2023-02-16T11:03:45.313Z,74.39
2023-02-16T11:06:14.604Z,74.64
2023-02-16T11:08:50.915Z,74.40
2023-02-16T11:11:19.239Z,74.69
2023-02-16T11:13:50.165Z,74.56
2023-02-16T11:16:23.768Z,73.86
2023-02-16T11:19:00.103Z,73.68
2023-02-16T11:21:47.389Z,73.80
2023-02-16T11:24:31.645Z,73.32
2023-02-16T11:27:03.276Z,73.07
2023-02-16T11:29:31.517Z,72.62
2023-02-16T11:31:59.512Z,73.28
2023-02-16T11:34:37.672Z,73.08
2023-02-16T11:37:25.552Z,73.51
2023-02-16T11:39:55.799Z,72.56
2023-02-16T11:42:29.005Z,72.33
2023-02-16T11:44:58.885Z,72.38
2023-02-16T11:47:30.301Z,72.14
2023-02-16T11:50:28.968Z,72.79
2023-02-16T11:53:11.536Z,73.16
2023-02-16T11:55:43.341Z,72.88
2023-02-16T11:58:25.341Z,72.45
2023-02-16T12:00:58.664Z,71.04
2023-02-16T12:03:53.341Z,71.49
2023-02-16T12:06:45.454Z,71.35
2023-02-16T12:09:38.092Z,71.37
2023-02-16T12:12:17.483Z,71.93
2023-02-16T12:14:54.092Z,72.25
2023-02-16T12:17:46.954Z,71.93
2023-02-16T12:20:29.522Z,70.91
2023-02-16T12:23:23.117Z,69.44
2023-02-16T12:26:04.741Z,69.27
2023-02-16T12:28:53.519Z,68.56
2023-02-16T12:31:27.059Z,67.60
2023-02-16T12:34:20.101Z,67.51
2023-02-16T12:37:09.382Z,66.77
2023-02-16T12:40:05.704Z,65.75
2023-02-16T12:42:48.662Z,65.18
2023-02-16T12:45:22.956Z,64.86
2023-02-16T12:47:54.667Z,63.78
2023-02-16T12:50:24.637Z,63.63
2023-02-16T12:52:56.207Z,62.61
2023-02-16T12:55:31.462Z,61.45
2023-02-16T12:58:08.042Z,59.02
2023-02-16T13:00:43.710Z,57.64
2023-02-16T13:03:20.898Z,57.68
2023-02-16T13:06:08.322Z,57.16
2023-02-16T13:08:52.134Z,55.04
2023-02-16T13:11:28.689Z,55.29
2023-02-16T13:13:59.684Z,54.69
2023-02-16T13:16:47.408Z,55.13
2023-02-16T13:19:15.576Z,55.40
2023-02-16T13:21:58.824Z,55.38
2023-02-16T13:24:43.024Z,54.99
2023-02-16T13:27:37.223Z,53.71
2023-02-16T13:30:24.643Z,53.84
2023-02-16T13:33:14.705Z,53.47
2023-02-16T13:35:57.420Z,54.17
2023-02-16T13:38:56.420Z,53.46
2023-02-16T13:41:35.937Z,52.41
2023-02-16T13:44:21.349Z,53.62
2023-02-16T13:46:52.593Z,53.82
2023-02-16T13:49:28.027Z,53.04
2023-02-16T13:51:55.348Z,52.91
2023-02-16T13:54:26.907Z,53.06
2023-02-16T13:56:54.280Z,52.56
2023-02-16T13:59:22.336Z,51.42
2023-02-16T14:01:51.276Z,51.17
2023-02-16T14:04:27.606Z,51.70
2023-02-16T14:07:03.790Z,51.51
2023-02-16T14:09:33.665Z,51.22
2023-02-16T14:12:03.147Z,51.75
2023-02-16T14:14:34.826Z,51.93
2023-02-16T14:17:23.367Z,51.74
2023-02-16T14:19:57.498Z,51.74
2023-02-16T14:22:43.521Z,51.75
2023-02-16T14:25:20.580Z,52.52
2023-02-16T14:27:49.026Z,52.48
2023-02-16T14:30:38.924Z,52.08
2023-02-16T14:33:12.256Z,52.34
2023-02-16T14:35:42.600Z,52.68
2023-02-16T14:38:18.741Z,53.21
2023-02-16T14:41:08.844Z,53.25
2023-02-16T14:43:47.639Z,53.62
2023-02-16T14:46:44.196Z,53.71
2023-02-16T14:49:48.697Z,54.09
2023-02-16T14:52:35.929Z,54.46
2023-02-16T14:55:23.193Z,53.77
2023-02-16T14:57:58.364Z,54.16
2023-02-16T15:00:45.895Z,54.57
2023-02-16T15:03:21.106Z,53.88
2023-02-16T15:05:58.226Z,54.68
2023-02-16T15:08:35.094Z,54.08
2023-02-16T15:11:13.865Z,54.27
2023-02-16T15:13:42.843Z,54.09
2023-02-16T15:16:15.445Z,53.34
2023-02-16T15:18:49.813Z,52.90
2023-02-16T15:21:28.372Z,53.05
2023-02-16T15:23:58.231Z,52.51
2023-02-16T15:26:35.394Z,52.60
2023-02-16T15:29:20.689Z,52.97
2023-02-16T15:31:48.797Z,52.73
2023-02-16T15:34:33.775Z,51.68
2023-02-16T15:37:02.531Z,52.10
2023-02-16T15:39:48.388Z,52.78
2023-02-16T15:42:27.133Z,53.02
2023-02-16T15:44:54.407Z,52.34
2023-02-16T15:47:27.460Z,52.30
2023-02-16T15:49:56.149Z,51.65
2023-02-16T15:52:33.267Z,52.20
2023-02-16T15:55:02.330Z,52.30
2023-02-16T15:57:32.112Z,52.09
2023-02-16T16:00:01.184Z,52.34
2023-02-16T16:02:35.865Z,52.64
2023-02-16T16:05:06.895Z,51.96
2023-02-16T16:07:40.083Z,52.62
2023-02-16T16:10:14.518Z,53.04
2023-02-16T16:12:42.042Z,53.60
2023-02-16T16:15:15.970Z,53.77
2023-02-16T16:17:43.271Z,54.25
2023-02-16T16:20:38.666Z,54.04
2023-02-16T16:23:27.080Z,54.36
2023-02-16T16:25:54.806Z,54.93
2023-02-16T16:28:24.858Z,54.50
2023-02-16T16:31:06.684Z,54.71
2023-02-16T16:34:02.023Z,54.75
2023-02-16T16:37:02.611Z,54.62
2023-02-16T16:39:32.238Z,55.14
2023-02-16T16:42:17.810Z,54.33
2023-02-16T16:45:00.441Z,54.80
2023-02-16T16:47:40.350Z,56.11
2023-02-16T16:50:09.344Z,55.62
2023-02-16T16:52:38.523Z,55.60
2023-02-16T16:55:27.415Z,56.01
2023-02-16T16:58:04.362Z,56.88
2023-02-16T17:00:35.454Z,58.32
2023-02-16T17:03:05.286Z,56.23
2023-02-16T17:05:34.103Z,56.73
2023-02-16T17:08:01.675Z,57.20
2023-02-16T17:10:29.571Z,57.43
2023-02-16T17:12:58.369Z,57.54
2023-02-16T17:15:30.169Z,57.94
2023-02-16T17:17:58.414Z,58.39
2023-02-16T17:20:25.766Z,58.65
2023-02-16T17:22:53.161Z,59.27
2023-02-16T17:25:20.818Z,59.51
2023-02-16T17:27:48.113Z,59.72
2023-02-16T17:30:15.776Z,59.45
2023-02-16T17:32:43.222Z,59.75
2023-02-16T17:35:10.647Z,60.01
2023-02-16T17:37:37.992Z,60.43
2023-02-16T17:40:11.958Z,61.65
2023-02-16T17:42:39.295Z,61.71
2023-02-16T17:45:06.884Z,61.18
2023-02-16T17:47:34.334Z,61.38
2023-02-16T17:50:01.864Z,61.64
2023-02-16T17:52:29.426Z,61.28
2023-02-16T17:54:56.719Z,61.92
2023-02-16T17:57:24.338Z,62.70
2023-02-16T17:59:51.711Z,63.20
2023-02-16T18:02:19.338Z,62.80
2023-02-16T18:04:46.722Z,63.49
2023-02-16T18:07:15.131Z,63.60
2023-02-16T18:09:42.590Z,63.67
2023-02-16T18:12:10.026Z,64.55
2023-02-16T18:14:37.488Z,64.87
2023-02-16T18:17:05.231Z,65.40
2023-02-16T18:19:33.980Z,65.05
2023-02-16T18:22:01.785Z,65.46
2023-02-16T18:24:31.418Z,65.74
2023-02-16T18:26:58.643Z,66.32
2023-02-16T18:29:25.986Z,66.55
2023-02-16T18:31:53.490Z,66.72
2023-02-16T18:34:20.946Z,66.62
2023-02-16T18:36:48.379Z,65.54
2023-02-16T18:39:15.770Z,65.88
2023-02-16T18:41:43.061Z,65.79
2023-02-16T18:44:11.798Z,66.12
2023-02-16T18:46:39.113Z,66.23
2023-02-16T18:49:06.628Z,67.27
2023-02-16T18:51:34.061Z,67.43
2023-02-16T18:54:01.310Z,67.33
2023-02-16T18:56:28.675Z,67.18
2023-02-16T18:58:56.032Z,68.63
2023-02-16T19:01:29.424Z,68.26
2023-02-16T19:03:57.263Z,68.72
2023-02-16T19:06:24.786Z,69.37
2023-02-16T19:08:52.479Z,69.54
2023-02-16T19:11:21.283Z,69.24
2023-02-16T19:13:49.089Z,70.38
2023-02-16T19:16:16.914Z,70.00
2023-02-16T19:18:45.625Z,69.77
2023-02-16T19:21:14.117Z,69.72
2023-02-16T19:23:41.596Z,69.66
2023-02-16T19:26:13.074Z,69.62
2023-02-16T19:28:40.548Z,70.15
2023-02-16T19:31:14.897Z,70.37
2023-02-16T19:33:42.191Z,71.08
2023-02-16T19:36:10.431Z,70.78
2023-02-16T19:38:38.224Z,70.31
2023-02-16T19:41:13.797Z,70.27
2023-02-16T19:43:42.368Z,71.74
2023-02-16T19:46:10.900Z,70.82
2023-02-16T19:48:38.637Z,70.76
2023-02-16T19:51:07.553Z,71.08
2023-02-16T19:53:36.504Z,69.39
2023-02-16T19:56:05.954Z,70.68
2023-02-16T19:58:33.686Z,71.75
2023-02-16T20:01:10.356Z,71.24
2023-02-16T20:03:38.577Z,72.35
2023-02-16T20:06:16.341Z,71.97
2023-02-16T20:08:44.300Z,71.45
2023-02-16T20:11:12.390Z,71.92
2023-02-16T20:13:39.808Z,71.75
2023-02-16T20:16:09.771Z,71.61
2023-02-16T20:18:37.730Z,72.49
2023-02-16T20:21:16.387Z,72.73
2023-02-16T20:23:44.222Z,73.42
2023-02-16T20:26:20.623Z,73.20
2023-02-16T20:28:49.111Z,74.81
2023-02-16T20:31:28.829Z,73.57
2023-02-16T20:33:56.437Z,73.43
2023-02-16T20:36:24.077Z,74.04
2023-02-16T20:38:51.446Z,73.59
2023-02-16T20:41:19.946Z,73.03
2023-02-16T20:43:48.049Z,74.25
2023-02-16T20:46:16.348Z,74.34
2023-02-16T20:48:45.567Z,73.40
2023-02-16T20:51:13.652Z,73.31
2023-02-16T20:53:41.408Z,73.50
2023-02-16T20:56:19.993Z,73.44
2023-02-16T20:58:49.567Z,74.44
2023-02-16T21:01:23.630Z,74.25
2023-02-16T21:03:52.712Z,74.25
2023-02-16T21:06:23.783Z,74.18
2023-02-16T21:08:51.389Z,74.69
2023-02-16T21:11:18.968Z,74.65
2023-02-16T21:13:46.890Z,74.99
2023-02-16T21:16:14.875Z,75.23
2023-02-16T21:18:42.826Z,75.10
2023-02-16T21:21:15.548Z,75.97
2023-02-16T21:23:46.838Z,75.86
2023-02-16T21:26:15.102Z,75.19
2023-02-16T21:28:46.272Z,76.80
2023-02-16T21:31:17.067Z,76.52
2023-02-16T21:33:44.563Z,76.55
2023-02-16T21:36:19.188Z,76.54
2023-02-16T21:38:46.683Z,77.32
2023-02-16T21:41:25.487Z,76.50
2023-02-16T21:44:03.501Z,77.40
2023-02-16T21:46:37.801Z,77.61
2023-02-16T21:49:19.375Z,78.25
2023-02-16T21:51:47.893Z,77.27
2023-02-16T21:54:17.713Z,76.45
2023-02-16T21:56:50.218Z,76.51
2023-02-16T21:59:19.363Z,79.07
2023-02-16T22:01:51.043Z,74.09
2023-02-16T22:04:21.867Z,73.48
2023-02-16T22:06:50.214Z,72.65
2023-02-16T22:09:22.770Z,74.35
2023-02-16T22:11:50.782Z,75.23
2023-02-16T22:14:18.639Z,76.20
2023-02-16T22:16:47.481Z,77.10
2023-02-16T22:19:16.185Z,77.32
2023-02-16T22:21:44.979Z,77.41
2023-02-16T22:24:14.457Z,78.14
2023-02-16T22:26:46.489Z,77.51
2023-02-16T22:29:15.328Z,77.65
2023-02-16T22:31:44.717Z,78.02
2023-02-16T22:34:14.535Z,78.89
2023-02-16T22:36:41.905Z,78.39
2023-02-16T22:39:12.478Z,79.02
2023-02-16T22:41:41.456Z,79.07
2023-02-16T22:44:10.818Z,78.55
2023-02-16T22:46:38.101Z,78.87
2023-02-16T22:49:05.451Z,79.29
2023-02-16T22:51:33.066Z,78.86
2023-02-16T22:54:01.657Z,78.66
2023-02-16T22:56:30.083Z,78.67
2023-02-16T22:58:58.503Z,78.30
2023-02-16T23:01:27.954Z,78.34
2023-02-16T23:03:57.621Z,78.17
2023-02-16T23:06:31.189Z,78.02
2023-02-16T23:09:01.287Z,78.54
2023-02-16T23:11:29.029Z,78.56
2023-02-16T23:13:56.509Z,78.32
2023-02-16T23:16:25.269Z,78.64
2023-02-16T23:18:57.330Z,78.62
2023-02-16T23:21:29.833Z,78.71
2023-02-16T23:23:57.995Z,78.67
2023-02-16T23:26:27.347Z,79.11
2023-02-16T23:28:57.144Z,79.08
2023-02-16T23:31:24.476Z,79.73
2023-02-16T23:33:52.038Z,79.90
2023-02-16T23:36:19.338Z,80.46
2023-02-16T23:38:46.705Z,80.22
2023-02-16T23:41:14.677Z,80.28
2023-02-16T23:43:42.637Z,80.50
2023-02-16T23:46:10.901Z,80.51
2023-02-16T23:48:38.524Z,80.64
2023-02-16T23:51:06.312Z,80.01
2023-02-16T23:53:36.032Z,80.69
2023-02-16T23:56:09.431Z,80.68
2023-02-16T23:58:41.322Z,80.57
